Time,TemperatureF,DewpointF,PressureIn,WindDirection,WindDirectionDegrees,WindSpeedMPH,WindSpeedGustMPH,Humidity,HourlyPrecipIn,Conditions,Clouds,dailyrainin,SolarRadiationWatts/m^2,SoftwareType,DateUTC
2013-05-19 00:00:00,72.5,69.7,29.78,SW,217,4.6,4.6,91,0.00,CLR,SKC,0.00,0.0,WeatherDisplay:10.37,2013-05-19 05:00:00,
2013-05-19 00:05:00,72.5,69.7,29.78,SSW,207,2.3,2.3,91,0.00,CLR,SKC,0.00,0.0,WeatherDisplay:10.37,2013-05-19 05:05:00,
2013-05-19 00:10:00,72.5,69.7,29.77,West,265,2.3,2.3,91,0.00,CLR,SKC,0.00,0.0,WeatherDisplay:10.37,2013-05-19 05:10:00,
2013-05-19 00:15:00,72.4,69.6,29.77,SSW,205,1.2,1.2,91,0.00,CLR,SKC,0.00,0.0,WeatherDisplay:10.37,2013-05-19 05:15:00,
2013-05-19 00:20:00,72.4,69.6,29.76,WSW,252,0.0,0.0,91,0.00,CLR,SKC,0.00,0.0,WeatherDisplay:10.37,2013-05-19 05:20:00,
2013-05-19 00:25:00,72.3,69.5,29.76,ESE,105,0.0,0.0,91,0.00,CLR,SKC,0.00,0.0,WeatherDisplay:10.37,2013-05-19 05:25:00,
2013-05-19 00:30:00,72.3,69.8,29.76,SSW,211,5.8,5.8,92,0.00,CLR,SKC,0.00,0.0,WeatherDisplay:10.37,2013-05-19 05:30:00,
2013-05-19 00:35:00,72.2,69.7,29.76,SW,217,3.5,3.5,92,0.00,CLR,SKC,0.00,0.0,WeatherDisplay:10.37,2013-05-19 05:35:00,
2013-05-19 00:40:00,72.1,69.6,29.77,SSW,198,0.0,0.0,92,0.00,CLR,SKC,0.00,0.0,WeatherDisplay:10.37,2013-05-19 05:40:00,
2013-05-19 00:45:00,72.0,69.5,29.76,WNW,294,5.8,5.8,92,0.00,CLR,SKC,0.00,0.0,WeatherDisplay:10.37,2013-05-19 05:45:00,
2013-05-19 00:50:00,72.0,69.5,29.76,SSW,211,3.5,3.5,92,0.00,CLR,SKC,0.00,0.0,WeatherDisplay:10.37,2013-05-19 05:50:00,
2013-05-19 00:55:00,72.0,69.5,29.76,South,177,1.2,1.2,92,0.00,CLR,SKC,0.00,0.0,WeatherDisplay:10.37,2013-05-19 05:55:00,
2013-05-19 01:00:00,72.0,69.5,29.76,South,184,3.5,3.5,92,0.00,CLR,SKC,0.00,0.0,WeatherDisplay:10.37,2013-05-19 06:00:00,
2013-05-19 01:05:00,72.0,69.5,29.76,SSE,155,2.3,2.3,92,0.00,CLR,SKC,0.00,0.0,WeatherDisplay:10.37,2013-05-19 06:05:00,
2013-05-19 01:10:00,71.9,69.8,29.76,East,101,2.3,2.3,93,0.00,CLR,SKC,0.00,0.0,WeatherDisplay:10.37,2013-05-19 06:10:00,
2013-05-19 01:15:00,71.8,69.7,29.76,SW,221,4.6,4.6,93,0.00,CLR,SKC,0.00,0.0,WeatherDisplay:10.37,2013-05-19 06:15:00,
2013-05-19 01:20:00,71.9,69.8,29.76,SSW,198,0.0,0.0,93,0.00,CLR,SKC,0.00,0.0,WeatherDisplay:10.37,2013-05-19 06:20:00,
2013-05-19 01:25:00,71.9,69.8,29.77,SSW,212,1.2,1.2,93,0.00,CLR,SKC,0.00,0.0,WeatherDisplay:10.37,2013-05-19 06:25:00,
2013-05-19 01:30:00,71.8,69.7,29.76,SW,222,3.5,3.5,93,0.00,CLR,SKC,0.00,0.0,WeatherDisplay:10.37,2013-05-19 06:30:00,
2013-05-19 01:35:00,71.8,69.7,29.76,SSW,209,6.9,6.9,93,0.00,CLR,SKC,0.00,0.0,WeatherDisplay:10.37,2013-05-19 06:35:00,
2013-05-19 01:40:00,71.8,69.7,29.77,SW,224,3.5,3.5,93,0.00,CLR,SKC,0.00,0.0,WeatherDisplay:10.37,2013-05-19 06:40:00,
2013-05-19 01:45:00,71.8,69.7,29.77,SW,217,3.5,3.5,93,0.00,CLR,SKC,0.00,0.0,WeatherDisplay:10.37,2013-05-19 06:45:00,
2013-05-19 01:50:00,71.9,69.8,29.77,SE,129,0.0,0.0,93,0.00,CLR,SKC,0.00,0.0,WeatherDisplay:10.37,2013-05-19 06:50:00,
2013-05-19 01:55:00,71.9,69.8,29.77,SW,217,3.5,3.5,93,0.00,CLR,SKC,0.00,0.0,WeatherDisplay:10.37,2013-05-19 06:55:00,
2013-05-19 02:00:00,72.0,69.9,29.77,SW,221,4.0,4.0,93,0.00,CLR,SKC,0.00,0.0,WeatherDisplay:10.37,2013-05-19 07:00:00,
2013-05-19 02:05:00,72.0,69.9,29.78,ESE,123,2.3,2.3,93,0.00,CLR,SKC,0.00,0.0,WeatherDisplay:10.37,2013-05-19 07:05:00,
2013-05-19 02:10:00,72.1,70.0,29.78,WSW,241,1.2,1.2,93,0.00,CLR,SKC,0.00,0.0,WeatherDisplay:10.37,2013-05-19 07:10:00,
2013-05-19 02:15:00,72.1,70.0,29.78,WSW,238,3.5,3.5,93,0.00,CLR,SKC,0.00,0.0,WeatherDisplay:10.37,2013-05-19 07:15:00,
2013-05-19 02:20:00,72.1,70.0,29.78,SW,227,3.5,3.5,93,0.00,CLR,SKC,0.00,0.0,WeatherDisplay:10.37,2013-05-19 07:20:00,
2013-05-19 02:25:00,72.1,70.0,29.78,SW,217,3.5,3.5,93,0.00,CLR,SKC,0.00,0.0,WeatherDisplay:10.37,2013-05-19 07:25:00,
2013-05-19 02:30:00,72.1,70.0,29.78,SW,223,1.2,1.2,93,0.00,CLR,SKC,0.00,0.0,WeatherDisplay:10.37,2013-05-19 07:30:00,
2013-05-19 02:35:00,72.1,70.0,29.78,WSW,243,3.5,3.5,93,0.00,CLR,SKC,0.00,0.0,WeatherDisplay:10.37,2013-05-19 07:35:00,
2013-05-19 02:40:00,72.1,70.0,29.78,WSW,242,1.2,0.0,93,0.00,CLR,SKC,0.00,0.0,WeatherDisplay:10.37,2013-05-19 07:40:00,
2013-05-19 02:45:00,72.1,70.0,29.77,WSW,243,0.0,0.0,93,0.00,CLR,SKC,0.00,0.0,WeatherDisplay:10.37,2013-05-19 07:45:00,
2013-05-19 02:50:00,72.1,70.0,29.77,WSW,243,2.3,2.3,93,0.00,CLR,SKC,0.00,0.0,WeatherDisplay:10.37,2013-05-19 07:50:00,
2013-05-19 02:55:00,72.1,70.0,29.77,West,271,4.6,4.6,93,0.00,CLR,SKC,0.00,0.0,WeatherDisplay:10.37,2013-05-19 07:55:00,
2013-05-19 03:00:00,72.0,69.9,29.76,WSW,246,3.5,3.5,93,0.00,CLR,SKC,0.00,0.0,WeatherDisplay:10.37,2013-05-19 08:00:00,
2013-05-19 03:05:00,72.0,69.9,29.76,SSW,192,3.5,3.5,93,0.00,CLR,SKC,0.00,0.0,WeatherDisplay:10.37,2013-05-19 08:05:00,
2013-05-19 03:10:00,71.9,69.8,29.75,SSE,148,2.3,0.0,93,0.00,CLR,SKC,0.00,0.0,WeatherDisplay:10.37,2013-05-19 08:10:00,
2013-05-19 03:15:00,71.8,69.7,29.74,South,190,1.2,0.0,93,0.00,CLR,SKC,0.00,0.0,WeatherDisplay:10.37,2013-05-19 08:15:00,
2013-05-19 03:20:00,71.8,69.7,29.74,SW,228,0.0,0.0,93,0.00,CLR,SKC,0.00,0.0,WeatherDisplay:10.37,2013-05-19 08:20:00,
2013-05-19 03:25:00,71.8,69.7,29.73,West,263,2.3,2.3,93,0.00,CLR,SKC,0.00,0.0,WeatherDisplay:10.37,2013-05-19 08:25:00,
2013-05-19 03:30:00,71.7,69.6,29.73,WSW,237,1.2,1.2,93,0.00,CLR,SKC,0.00,0.0,WeatherDisplay:10.37,2013-05-19 08:30:00,
2013-05-19 03:35:00,71.7,69.6,29.73,South,186,1.2,1.2,93,0.00,CLR,SKC,0.00,0.0,WeatherDisplay:10.37,2013-05-19 08:35:00,
2013-05-19 03:40:00,71.7,69.6,29.73,SW,221,3.5,3.5,93,0.00,CLR,SKC,0.00,0.0,WeatherDisplay:10.37,2013-05-19 08:40:00,
2013-05-19 03:45:00,71.6,69.5,29.73,SW,229,0.0,0.0,93,0.00,CLR,SKC,0.00,0.0,WeatherDisplay:10.37,2013-05-19 08:45:00,
2013-05-19 03:50:00,71.5,69.4,29.73,South,189,3.5,3.5,93,0.00,CLR,SKC,0.00,0.0,WeatherDisplay:10.37,2013-05-19 08:50:00,
2013-05-19 03:55:00,71.4,69.3,29.74,WSW,243,3.5,3.5,93,0.00,CLR,SKC,0.00,0.0,WeatherDisplay:10.37,2013-05-19 08:55:00,
2013-05-19 04:00:00,71.3,69.2,29.74,WSW,242,3.5,3.5,93,0.00,CLR,SKC,0.00,0.0,WeatherDisplay:10.37,2013-05-19 09:00:00,
2013-05-19 04:05:00,71.2,69.1,29.73,SW,233,1.2,1.2,93,0.00,CLR,SKC,0.00,0.0,WeatherDisplay:10.37,2013-05-19 09:05:00,
2013-05-19 04:10:00,71.1,69.3,29.74,WSW,240,3.5,3.5,94,0.00,CLR,SKC,0.00,0.0,WeatherDisplay:10.37,2013-05-19 09:10:00,
2013-05-19 04:15:00,71.1,69.3,29.74,SW,215,2.3,2.3,94,0.00,CLR,SKC,0.00,0.0,WeatherDisplay:10.37,2013-05-19 09:15:00,
2013-05-19 04:20:00,71.0,69.2,29.73,SSW,213,3.5,3.5,94,0.00,CLR,SKC,0.00,0.0,WeatherDisplay:10.37,2013-05-19 09:20:00,
2013-05-19 04:25:00,71.0,69.2,29.74,WSW,248,1.2,0.0,94,0.00,CLR,SKC,0.00,0.0,WeatherDisplay:10.37,2013-05-19 09:25:00,
2013-05-19 04:30:00,71.0,69.2,29.73,WSW,237,3.5,3.5,94,0.00,CLR,SKC,0.00,0.0,WeatherDisplay:10.37,2013-05-19 09:30:00,
2013-05-19 04:35:00,70.9,69.1,29.73,SW,218,4.6,4.6,94,0.00,CLR,SKC,0.00,0.0,WeatherDisplay:10.37,2013-05-19 09:35:00,
2013-05-19 04:40:00,70.9,69.1,29.73,SW,231,3.5,3.5,94,0.00,CLR,SKC,0.00,0.0,WeatherDisplay:10.37,2013-05-19 09:40:00,
2013-05-19 04:45:00,70.8,69.0,29.73,West,261,4.6,4.6,94,0.00,CLR,SKC,0.00,0.0,WeatherDisplay:10.37,2013-05-19 09:45:00,
2013-05-19 04:50:00,70.7,68.9,29.73,WSW,251,4.6,4.6,94,0.00,CLR,SKC,0.00,0.0,WeatherDisplay:10.37,2013-05-19 09:50:00,
2013-05-19 04:55:00,70.6,68.8,29.73,SW,231,4.6,4.6,94,0.00,CLR,SKC,0.00,0.0,WeatherDisplay:10.37,2013-05-19 09:55:00,
2013-05-19 05:00:00,70.6,68.8,29.73,SW,232,4.6,4.6,94,0.00,CLR,SKC,0.00,0.0,WeatherDisplay:10.37,2013-05-19 10:00:00,
2013-05-19 05:05:00,70.5,68.7,29.73,SW,222,4.6,4.6,94,0.00,CLR,SKC,0.00,0.0,WeatherDisplay:10.37,2013-05-19 10:05:00,
2013-05-19 05:10:00,70.4,68.9,29.73,WSW,244,3.5,3.5,95,0.00,CLR,SKC,0.00,0.0,WeatherDisplay:10.37,2013-05-19 10:10:00,
2013-05-19 05:15:00,70.4,68.9,29.73,South,181,3.5,3.5,95,0.00,CLR,SKC,0.00,0.0,WeatherDisplay:10.37,2013-05-19 10:15:00,
2013-05-19 05:20:00,70.4,68.9,29.73,WSW,238,6.9,6.9,95,0.00,CLR,SKC,0.00,0.0,WeatherDisplay:10.37,2013-05-19 10:20:00,
2013-05-19 05:25:00,70.4,68.9,29.73,SW,232,3.5,3.5,95,0.00,CLR,SKC,0.00,0.0,WeatherDisplay:10.37,2013-05-19 10:25:00,
2013-05-19 05:30:00,70.4,68.9,29.73,SW,216,7.0,7.0,95,0.00,CLR,SKC,0.00,0.0,WeatherDisplay:10.37,2013-05-19 10:30:00,
2013-05-19 05:35:00,70.4,68.9,29.73,SW,226,6.9,6.9,95,0.00,CLR,SKC,0.00,0.0,WeatherDisplay:10.37,2013-05-19 10:35:00,
2013-05-19 05:40:00,70.3,68.8,29.72,SE,130,5.8,5.8,95,0.00,CLR,SKC,0.00,0.0,WeatherDisplay:10.37,2013-05-19 10:40:00,
2013-05-19 05:45:00,70.3,68.8,29.73,WSW,240,5.8,5.8,95,0.00,CLR,SKC,0.00,0.0,WeatherDisplay:10.37,2013-05-19 10:45:00,
2013-05-19 05:50:00,70.3,68.8,29.74,WSW,240,5.8,5.8,95,0.00,CLR,SKC,0.00,0.0,WeatherDisplay:10.37,2013-05-19 10:50:00,
2013-05-19 05:55:00,70.2,68.7,29.73,SSE,160,3.5,3.5,95,0.00,CLR,SKC,0.00,0.0,WeatherDisplay:10.37,2013-05-19 10:55:00,
2013-05-19 06:00:00,70.1,68.6,29.73,SW,225,3.5,3.5,95,0.00,OVC,SKC,0.00,0.0,WeatherDisplay:10.37,2013-05-19 11:00:00,
2013-05-19 06:05:00,70.0,68.5,29.73,SW,229,1.2,1.2,95,0.00,OVC,SKC,0.00,0.0,WeatherDisplay:10.37,2013-05-19 11:05:00,
2013-05-19 06:10:00,70.0,68.5,29.73,SW,219,5.8,5.8,95,0.00,OVC,SKC,0.00,0.0,WeatherDisplay:10.37,2013-05-19 11:10:00,
2013-05-19 06:15:00,69.9,68.4,29.73,SSW,213,5.8,5.8,95,0.00,OVC,SKC,0.00,0.0,WeatherDisplay:10.37,2013-05-19 11:15:00,
2013-05-19 06:20:00,69.8,68.3,29.74,SSW,209,6.9,6.9,95,0.00,OVC,SKC,0.00,5.0,WeatherDisplay:10.37,2013-05-19 11:20:00,
2013-05-19 06:25:00,69.7,68.2,29.74,SSE,153,3.5,3.5,95,0.00,OVC,SKC,0.00,9.0,WeatherDisplay:10.37,2013-05-19 11:25:00,
2013-05-19 06:30:00,69.7,67.9,29.74,SW,234,11.5,11.5,94,0.00,OVC,SKC,0.00,11.0,WeatherDisplay:10.37,2013-05-19 11:30:00,
2013-05-19 06:35:00,69.8,68.0,29.75,SSW,204,6.9,6.9,94,0.00,OVC,SKC,0.00,12.0,WeatherDisplay:10.37,2013-05-19 11:35:00,
2013-05-19 06:40:00,69.8,68.0,29.75,SW,236,3.5,3.5,94,0.00,OVC,SKC,0.00,12.0,WeatherDisplay:10.37,2013-05-19 11:40:00,
2013-05-19 06:45:00,69.8,68.0,29.75,SW,229,4.0,4.0,94,0.00,OVC,SKC,0.00,12.0,WeatherDisplay:10.37,2013-05-19 11:45:00,
2013-05-19 06:50:00,69.8,68.0,29.75,SSW,202,12.7,12.7,94,0.00,OVC,SKC,0.00,14.0,WeatherDisplay:10.37,2013-05-19 11:50:00,
2013-05-19 06:55:00,69.8,67.7,29.74,SW,234,3.5,3.5,93,0.00,OVC,SKC,0.00,16.0,WeatherDisplay:10.37,2013-05-19 11:55:00,
2013-05-19 07:00:00,69.7,67.6,29.75,WSW,242,3.5,3.5,93,0.00,OVC,SKC,0.00,19.0,WeatherDisplay:10.37,2013-05-19 12:00:00,
2013-05-19 07:05:00,69.7,67.6,29.75,South,171,5.8,5.8,93,0.00,OVC,SKC,0.00,21.0,WeatherDisplay:10.37,2013-05-19 12:05:00,
2013-05-19 07:10:00,69.6,67.5,29.75,WSW,240,3.5,3.5,93,0.00,OVC,SKC,0.00,23.0,WeatherDisplay:10.37,2013-05-19 12:10:00,
2013-05-19 07:15:00,69.5,67.4,29.74,SW,236,4.6,4.6,93,0.00,OVC,SKC,0.00,28.0,WeatherDisplay:10.37,2013-05-19 12:15:00,
2013-05-19 07:20:00,69.5,67.4,29.75,WSW,241,6.9,6.9,93,0.00,OVC,SKC,0.00,32.0,WeatherDisplay:10.37,2013-05-19 12:20:00,
2013-05-19 07:25:00,69.4,67.3,29.75,SW,219,6.9,6.9,93,0.00,OVC,SKC,0.00,42.0,WeatherDisplay:10.37,2013-05-19 12:25:00,
2013-05-19 07:30:00,69.4,67.3,29.75,SW,236,4.6,4.6,93,0.00,OVC,SKC,0.00,49.0,WeatherDisplay:10.37,2013-05-19 12:30:00,
2013-05-19 07:35:00,69.4,67.3,29.75,North,9,1.2,0.0,93,0.00,OVC,SKC,0.00,54.0,WeatherDisplay:10.37,2013-05-19 12:35:00,
2013-05-19 07:40:00,69.5,67.4,29.75,SW,232,5.8,5.8,93,0.00,OVC,SKC,0.00,60.0,WeatherDisplay:10.37,2013-05-19 12:40:00,
2013-05-19 07:45:00,69.5,67.4,29.75,SSW,207,9.2,9.2,93,0.00,OVC,SKC,0.00,62.0,WeatherDisplay:10.37,2013-05-19 12:45:00,
2013-05-19 07:50:00,69.6,67.5,29.74,SSW,202,9.0,9.0,93,0.00,OVC,SKC,0.00,63.0,WeatherDisplay:10.37,2013-05-19 12:50:00,
2013-05-19 07:55:00,69.7,67.3,29.74,SSW,192,6.0,6.0,92,0.00,OVC,SKC,0.00,69.0,WeatherDisplay:10.37,2013-05-19 12:55:00,
2013-05-19 08:00:00,69.8,67.4,29.74,SW,236,10.4,10.4,92,0.00,OVC,SKC,0.00,67.0,WeatherDisplay:10.37,2013-05-19 13:00:00,
2013-05-19 08:05:00,70.0,66.9,29.74,SW,232,10.4,10.4,90,0.00,OVC,SKC,0.00,67.0,WeatherDisplay:10.37,2013-05-19 13:05:00,
2013-05-19 08:10:00,70.2,67.1,29.74,SW,236,8.1,8.1,90,0.00,OVC,SKC,0.00,67.0,WeatherDisplay:10.37,2013-05-19 13:10:00,
2013-05-19 08:15:00,70.4,67.0,29.75,WSW,249,5.8,5.8,89,0.00,OVC,SKC,0.00,70.0,WeatherDisplay:10.37,2013-05-19 13:15:00,
2013-05-19 08:20:00,70.5,67.1,29.75,ESE,120,6.9,6.9,89,0.00,OVC,SKC,0.00,70.0,WeatherDisplay:10.37,2013-05-19 13:20:00,
2013-05-19 08:25:00,70.7,67.0,29.75,SSW,195,10.4,10.4,88,0.00,OVC,SKC,0.00,72.0,WeatherDisplay:10.37,2013-05-19 13:25:00,
2013-05-19 08:30:00,70.8,67.1,29.75,South,176,11.5,11.5,88,0.00,OVC,SKC,0.00,76.0,WeatherDisplay:10.37,2013-05-19 13:30:00,
2013-05-19 08:35:00,71.0,67.3,29.75,West,267,5.8,5.8,88,0.00,OVC,SKC,0.00,77.0,WeatherDisplay:10.37,2013-05-19 13:35:00,
2013-05-19 08:40:00,71.1,67.0,29.75,WSW,252,8.1,8.1,87,0.00,OVC,SKC,0.00,77.0,WeatherDisplay:10.37,2013-05-19 13:40:00,
2013-05-19 08:45:00,71.3,66.9,29.76,ENE,78,11.5,11.5,86,0.00,OVC,SKC,0.00,79.0,WeatherDisplay:10.37,2013-05-19 13:45:00,
2013-05-19 08:50:00,71.4,66.7,29.76,WSW,250,4.6,4.6,85,0.00,OVC,SKC,0.00,81.0,WeatherDisplay:10.37,2013-05-19 13:50:00,
2013-05-19 08:55:00,71.6,67.2,29.75,SE,144,10.4,10.4,86,0.00,OVC,SKC,0.00,81.0,WeatherDisplay:10.37,2013-05-19 13:55:00,
2013-05-19 09:00:00,71.7,66.9,29.75,SSW,194,4.6,4.6,85,0.00,OVC,SKC,0.00,83.0,WeatherDisplay:10.37,2013-05-19 14:00:00,
2013-05-19 09:05:00,71.9,66.8,29.75,WSW,239,6.9,6.9,84,0.00,OVC,SKC,0.00,84.0,WeatherDisplay:10.37,2013-05-19 14:05:00,
2013-05-19 09:10:00,72.0,66.6,29.75,SW,227,6.9,6.9,83,0.00,OVC,SKC,0.00,83.0,WeatherDisplay:10.37,2013-05-19 14:10:00,
2013-05-19 09:15:00,72.2,66.4,29.75,ESE,120,9.2,9.2,82,0.00,OVC,SKC,0.00,86.0,WeatherDisplay:10.37,2013-05-19 14:15:00,
2013-05-19 09:20:00,72.5,66.0,29.74,East,100,8.1,8.1,80,0.00,OVC,SKC,0.00,91.0,WeatherDisplay:10.37,2013-05-19 14:20:00,
2013-05-19 09:25:00,72.7,65.8,29.74,WSW,254,11.5,11.5,79,0.00,OVC,SKC,0.00,91.0,WeatherDisplay:10.37,2013-05-19 14:25:00,
2013-05-19 09:30:00,72.9,66.0,29.74,SE,140,11.5,11.5,79,0.00,OVC,SKC,0.00,97.0,WeatherDisplay:10.37,2013-05-19 14:30:00,
2013-05-19 09:35:00,73.2,65.9,29.74,South,181,9.2,9.2,78,0.00,OVC,SKC,0.00,86.0,WeatherDisplay:10.37,2013-05-19 14:35:00,
2013-05-19 09:40:00,73.4,65.7,29.73,WSW,256,9.2,9.2,77,0.00,OVC,SKC,0.00,91.0,WeatherDisplay:10.37,2013-05-19 14:40:00,
2013-05-19 09:45:00,73.6,65.6,29.74,SW,234,10.4,10.4,76,0.00,OVC,SKC,0.00,95.0,WeatherDisplay:10.37,2013-05-19 14:45:00,
2013-05-19 09:50:00,73.8,65.4,29.73,SW,225,6.0,6.0,75,0.00,OVC,SKC,0.00,195.0,WeatherDisplay:10.37,2013-05-19 14:50:00,
2013-05-19 09:55:00,74.0,65.2,29.73,South,175,11.5,11.5,74,0.00,OVC,SKC,0.00,93.0,WeatherDisplay:10.37,2013-05-19 14:55:00,
2013-05-19 10:00:00,74.3,64.7,29.73,SSW,212,12.7,12.7,72,0.00,OVC,SKC,0.00,123.0,WeatherDisplay:10.37,2013-05-19 15:00:00,
2013-05-19 10:05:00,74.6,63.8,29.73,SSE,157,11.5,11.5,69,0.00,OVC,SKC,0.00,100.0,WeatherDisplay:10.37,2013-05-19 15:05:00,
2013-05-19 10:10:00,74.9,63.6,29.72,South,184,11.5,11.5,68,0.00,OVC,SKC,0.00,104.0,WeatherDisplay:10.37,2013-05-19 15:10:00,
2013-05-19 10:15:00,75.2,63.9,29.72,SSE,153,10.0,10.0,68,0.00,OVC,SKC,0.00,230.0,WeatherDisplay:10.37,2013-05-19 15:15:00,
2013-05-19 10:20:00,75.5,63.8,29.72,SSW,209,9.2,9.2,67,0.00,FEW,SKC,0.00,707.0,WeatherDisplay:10.37,2013-05-19 15:20:00,
2013-05-19 10:25:00,75.7,64.0,29.71,East,99,5.8,5.8,67,0.00,FEW,SKC,0.00,715.0,WeatherDisplay:10.37,2013-05-19 15:25:00,
2013-05-19 10:30:00,75.9,63.3,29.71,ESE,118,11.5,11.5,65,0.00,FEW,SKC,0.00,737.0,WeatherDisplay:10.37,2013-05-19 15:30:00,
2013-05-19 10:35:00,76.1,64.3,29.70,SW,229,4.6,4.6,67,0.00,FEW,SKC,0.00,744.0,WeatherDisplay:10.37,2013-05-19 15:35:00,
2013-05-19 10:40:00,76.6,64.0,29.71,WSW,254,11.5,11.5,65,0.00,FEW,SKC,0.00,761.0,WeatherDisplay:10.37,2013-05-19 15:40:00,
2013-05-19 10:45:00,76.7,63.6,29.71,South,185,12.7,12.7,64,0.00,FEW,SKC,0.00,775.0,WeatherDisplay:10.37,2013-05-19 15:45:00,
2013-05-19 10:50:00,76.9,63.8,29.71,WSW,239,11.5,11.5,64,0.00,FEW,SKC,0.00,786.0,WeatherDisplay:10.37,2013-05-19 15:50:00,
2013-05-19 10:55:00,77.2,63.2,29.71,SSE,149,12.7,12.7,62,0.00,FEW,SKC,0.00,802.0,WeatherDisplay:10.37,2013-05-19 15:55:00,
2013-05-19 11:00:00,77.2,63.6,29.71,SSW,194,10.4,10.4,63,0.00,FEW,SKC,0.00,814.0,WeatherDisplay:10.37,2013-05-19 16:00:00,
2013-05-19 11:05:00,77.5,63.0,29.71,SW,215,10.4,10.4,61,0.00,FEW,SKC,0.00,821.0,WeatherDisplay:10.37,2013-05-19 16:05:00,
2013-05-19 11:10:00,77.9,62.9,29.71,SW,225,10.4,10.4,60,0.00,FEW,SKC,0.00,837.0,WeatherDisplay:10.37,2013-05-19 16:10:00,
2013-05-19 11:15:00,78.1,63.6,29.71,SW,219,13.8,13.8,61,0.00,FEW,SKC,0.00,844.0,WeatherDisplay:10.37,2013-05-19 16:15:00,
2013-05-19 11:20:00,78.2,63.6,29.71,SW,219,11.5,11.5,61,0.00,FEW,SKC,0.00,853.0,WeatherDisplay:10.37,2013-05-19 16:20:00,
2013-05-19 11:25:00,78.8,64.7,29.71,WSW,245,8.1,8.1,62,0.00,FEW,SKC,0.00,863.0,WeatherDisplay:10.37,2013-05-19 16:25:00,
2013-05-19 11:30:00,79.2,64.6,29.70,West,269,7.0,7.0,61,0.00,FEW,SKC,0.00,875.0,WeatherDisplay:10.37,2013-05-19 16:30:00,
2013-05-19 11:35:00,79.0,63.9,29.70,WSW,246,10.4,10.4,60,0.00,FEW,SKC,0.00,881.0,WeatherDisplay:10.37,2013-05-19 16:35:00,
2013-05-19 11:40:00,79.4,63.8,29.70,East,97,5.8,5.8,59,0.00,FEW,SKC,0.00,888.0,WeatherDisplay:10.37,2013-05-19 16:40:00,
2013-05-19 11:45:00,79.8,64.2,29.70,WSW,254,6.9,6.9,59,0.00,FEW,SKC,0.00,902.0,WeatherDisplay:10.37,2013-05-19 16:45:00,
2013-05-19 11:50:00,79.7,64.6,29.70,WNW,284,16.1,16.1,60,0.00,FEW,SKC,0.00,914.0,WeatherDisplay:10.37,2013-05-19 16:50:00,
2013-05-19 11:55:00,79.2,64.1,29.70,NW,304,11.5,11.5,60,0.00,FEW,SKC,0.00,914.0,WeatherDisplay:10.37,2013-05-19 16:55:00,
2013-05-19 12:00:00,80.0,64.4,29.70,South,187,18.4,18.4,59,0.00,FEW,SKC,0.00,919.0,WeatherDisplay:10.37,2013-05-19 17:00:00,
2013-05-19 12:05:00,79.9,64.8,29.70,NNE,19,3.5,3.5,60,0.00,FEW,SKC,0.00,923.0,WeatherDisplay:10.37,2013-05-19 17:05:00,
2013-05-19 12:10:00,81.1,64.4,29.70,SSW,206,5.8,5.8,57,0.00,FEW,SKC,0.00,930.0,WeatherDisplay:10.37,2013-05-19 17:10:00,
2013-05-19 12:15:00,80.9,64.7,29.69,SW,233,7.0,7.0,58,0.00,FEW,SKC,0.00,935.0,WeatherDisplay:10.37,2013-05-19 17:15:00,
2013-05-19 12:20:00,81.4,64.2,29.69,NNE,14,16.1,16.1,56,0.00,FEW,SKC,0.00,942.0,WeatherDisplay:10.37,2013-05-19 17:20:00,
2013-05-19 12:25:00,81.5,64.8,29.69,NE,37,3.5,3.5,57,0.00,FEW,SKC,0.00,949.0,WeatherDisplay:10.37,2013-05-19 17:25:00,
2013-05-19 12:30:00,81.5,64.8,29.69,WSW,248,10.4,10.4,57,0.00,FEW,SKC,0.00,960.0,WeatherDisplay:10.37,2013-05-19 17:30:00,
2013-05-19 12:35:00,81.3,64.6,29.68,WSW,240,10.4,10.4,57,0.00,FEW,SKC,0.00,963.0,WeatherDisplay:10.37,2013-05-19 17:35:00,
2013-05-19 12:40:00,81.4,64.7,29.68,SSW,213,10.4,10.4,57,0.00,FEW,SKC,0.00,970.0,WeatherDisplay:10.37,2013-05-19 17:40:00,
2013-05-19 12:45:00,81.6,64.9,29.68,SSE,166,12.7,12.7,57,0.00,FEW,SKC,0.00,970.0,WeatherDisplay:10.37,2013-05-19 17:45:00,
2013-05-19 12:50:00,82.0,65.3,29.68,SW,221,13.8,13.8,57,0.00,FEW,SKC,0.00,984.0,WeatherDisplay:10.37,2013-05-19 17:50:00,
2013-05-19 12:55:00,81.8,64.1,29.68,ESE,107,13.8,13.8,55,0.00,FEW,SKC,0.00,984.0,WeatherDisplay:10.37,2013-05-19 17:55:00,
2013-05-19 13:00:00,82.1,64.8,29.68,West,261,17.3,17.3,56,0.00,FEW,SKC,0.00,984.0,WeatherDisplay:10.37,2013-05-19 18:00:00,
2013-05-19 13:05:00,82.6,65.3,29.68,East,98,9.0,9.0,56,0.00,FEW,SKC,0.00,984.0,WeatherDisplay:10.37,2013-05-19 18:05:00,
2013-05-19 13:10:00,83.0,65.7,29.67,ESE,107,11.5,11.5,56,0.00,FEW,SKC,0.00,986.0,WeatherDisplay:10.37,2013-05-19 18:10:00,
2013-05-19 13:15:00,83.7,65.3,29.67,SW,222,8.1,8.1,54,0.00,FEW,SKC,0.00,988.0,WeatherDisplay:10.37,2013-05-19 18:15:00,
2013-05-19 13:20:00,83.3,64.9,29.67,SW,217,19.6,19.6,54,0.00,FEW,SKC,0.00,984.0,WeatherDisplay:10.37,2013-05-19 18:20:00,
2013-05-19 13:25:00,82.9,65.1,29.67,WSW,246,6.9,6.9,55,0.00,FEW,SKC,0.00,976.0,WeatherDisplay:10.37,2013-05-19 18:25:00,
2013-05-19 13:30:00,83.2,65.4,29.67,SSW,194,6.9,6.9,55,0.00,FEW,SKC,0.00,984.0,WeatherDisplay:10.37,2013-05-19 18:30:00,
2013-05-19 13:35:00,83.9,66.5,29.67,SW,222,13.8,13.8,56,0.00,FEW,SKC,0.00,977.0,WeatherDisplay:10.37,2013-05-19 18:35:00,
2013-05-19 13:40:00,83.6,65.2,29.67,SSW,212,5.8,5.8,54,0.00,FEW,SKC,0.00,974.0,WeatherDisplay:10.37,2013-05-19 18:40:00,
2013-05-19 13:45:00,83.6,65.2,29.67,WSW,254,11.5,11.5,54,0.00,FEW,SKC,0.00,979.0,WeatherDisplay:10.37,2013-05-19 18:45:00,
2013-05-19 13:50:00,84.4,66.5,29.67,WSW,248,3.5,3.5,55,0.00,FEW,SKC,0.00,977.0,WeatherDisplay:10.37,2013-05-19 18:50:00,
2013-05-19 13:55:00,85.8,66.1,29.67,WSW,240,10.4,10.4,52,0.00,FEW,SKC,0.00,967.0,WeatherDisplay:10.37,2013-05-19 18:55:00,
2013-05-19 14:00:00,85.0,66.0,29.67,WNW,296,3.5,3.5,53,0.00,FEW,SKC,0.00,972.0,WeatherDisplay:10.37,2013-05-19 19:00:00,
2013-05-19 14:05:00,85.0,66.0,29.66,WSW,257,6.9,6.9,53,0.00,FEW,SKC,0.00,972.0,WeatherDisplay:10.37,2013-05-19 19:05:00,
2013-05-19 14:10:00,85.1,66.0,29.66,WSW,248,11.5,11.5,53,0.00,FEW,SKC,0.00,960.0,WeatherDisplay:10.37,2013-05-19 19:10:00,
2013-05-19 14:15:00,84.9,65.9,29.66,SSE,161,13.8,13.8,53,0.00,FEW,SKC,0.00,958.0,WeatherDisplay:10.37,2013-05-19 19:15:00,
2013-05-19 14:20:00,85.2,65.0,29.66,SW,226,10.4,10.4,51,0.00,FEW,SKC,0.00,949.0,WeatherDisplay:10.37,2013-05-19 19:20:00,
2013-05-19 14:25:00,85.6,65.4,29.65,South,189,10.4,10.4,51,0.00,FEW,SKC,0.00,944.0,WeatherDisplay:10.37,2013-05-19 19:25:00,
2013-05-19 14:31:00,85.4,65.2,29.65,ESE,121,4.6,4.6,51,0.00,FEW,SKC,0.00,939.0,WeatherDisplay:10.37,2013-05-19 19:31:00,
2013-05-19 14:36:00,86.1,67.5,29.65,West,271,3.5,3.5,54,0.00,FEW,SKC,0.00,937.0,WeatherDisplay:10.37,2013-05-19 19:36:00,
2013-05-19 14:41:00,86.2,65.9,29.65,SSW,210,6.9,6.9,51,0.00,FEW,SKC,0.00,930.0,WeatherDisplay:10.37,2013-05-19 19:41:00,
2013-05-19 14:46:00,86.0,65.2,29.64,SW,226,12.7,12.7,50,0.00,FEW,SKC,0.00,918.0,WeatherDisplay:10.37,2013-05-19 19:46:00,
2013-05-19 14:51:00,85.9,66.2,29.65,ENE,61,3.5,3.5,52,0.00,FEW,SKC,0.00,914.0,WeatherDisplay:10.37,2013-05-19 19:51:00,
2013-05-19 14:56:00,87.0,65.5,29.64,ESE,111,9.2,9.2,49,0.00,FEW,SKC,0.00,909.0,WeatherDisplay:10.37,2013-05-19 19:56:00,
2013-05-19 15:01:00,86.4,66.1,29.65,West,268,11.5,11.5,51,0.00,FEW,SKC,0.00,884.0,WeatherDisplay:10.37,2013-05-19 20:01:00,
2013-05-19 15:06:00,85.9,65.1,29.64,ENE,61,10.4,10.4,50,0.00,FEW,SKC,0.00,884.0,WeatherDisplay:10.37,2013-05-19 20:06:00,
2013-05-19 15:11:00,85.9,65.1,29.64,WNW,300,8.1,8.1,50,0.00,FEW,SKC,0.00,874.0,WeatherDisplay:10.37,2013-05-19 20:11:00,
2013-05-19 15:16:00,85.9,63.9,29.64,SSW,197,3.5,3.5,48,0.00,FEW,SKC,0.00,868.0,WeatherDisplay:10.37,2013-05-19 20:16:00,
2013-05-19 15:21:00,86.6,65.7,29.63,SSW,209,11.5,11.5,50,0.00,FEW,SKC,0.00,846.0,WeatherDisplay:10.37,2013-05-19 20:21:00,
2013-05-19 15:26:00,86.7,65.3,29.63,SSE,157,6.9,6.9,49,0.00,FEW,SKC,0.00,844.0,WeatherDisplay:10.37,2013-05-19 20:26:00,
2013-05-19 15:31:00,86.3,64.3,29.63,West,261,9.2,9.2,48,0.00,FEW,SKC,0.00,826.0,WeatherDisplay:10.37,2013-05-19 20:31:00,
2013-05-19 15:36:00,86.1,65.3,29.63,NE,56,10.4,10.4,50,0.00,FEW,SKC,0.00,821.0,WeatherDisplay:10.37,2013-05-19 20:36:00,
2013-05-19 15:41:00,86.4,65.6,29.63,WSW,241,13.0,13.0,50,0.00,FEW,SKC,0.00,814.0,WeatherDisplay:10.37,2013-05-19 20:41:00,
2013-05-19 15:46:00,86.2,65.4,29.62,North,355,6.9,6.9,50,0.00,FEW,SKC,0.00,800.0,WeatherDisplay:10.37,2013-05-19 20:46:00,
2013-05-19 15:51:00,86.6,67.4,29.62,ESE,119,6.0,6.0,53,0.00,FEW,SKC,0.00,788.0,WeatherDisplay:10.37,2013-05-19 20:51:00,
2013-05-19 15:56:00,85.9,65.1,29.62,NE,55,4.6,4.6,50,0.00,FEW,SKC,0.00,772.0,WeatherDisplay:10.37,2013-05-19 20:56:00,
2013-05-19 16:01:00,85.8,65.0,29.62,SSW,202,12.0,12.0,50,0.00,FEW,SKC,0.00,766.0,WeatherDisplay:10.37,2013-05-19 21:01:00,
2013-05-19 16:06:00,85.7,65.5,29.62,SW,221,6.9,6.9,51,0.00,FEW,SKC,0.00,758.0,WeatherDisplay:10.37,2013-05-19 21:06:00,
2013-05-19 16:11:00,86.3,66.0,29.62,SW,235,12.7,12.7,51,0.00,FEW,SKC,0.00,737.0,WeatherDisplay:10.37,2013-05-19 21:11:00,
2013-05-19 16:16:00,86.0,66.3,29.62,ESE,105,4.6,4.6,52,0.00,FEW,SKC,0.00,731.0,WeatherDisplay:10.37,2013-05-19 21:16:00,
2013-05-19 16:21:00,85.9,65.1,29.61,SSW,196,11.5,11.5,50,0.00,FEW,SKC,0.00,712.0,WeatherDisplay:10.37,2013-05-19 21:21:00,
2013-05-19 16:26:00,85.9,66.8,29.61,NNE,26,8.1,8.1,53,0.00,FEW,SKC,0.00,698.0,WeatherDisplay:10.37,2013-05-19 21:26:00,
2013-05-19 16:31:00,86.1,66.4,29.61,WSW,245,9.2,9.2,52,0.00,FEW,SKC,0.00,682.0,WeatherDisplay:10.37,2013-05-19 21:31:00,
2013-05-19 16:36:00,85.6,65.4,29.61,SSE,148,10.4,10.4,51,0.00,FEW,SKC,0.00,675.0,WeatherDisplay:10.37,2013-05-19 21:36:00,
2013-05-19 16:41:00,85.1,64.9,29.61,East,87,18.4,18.4,51,0.00,FEW,SKC,0.00,654.0,WeatherDisplay:10.37,2013-05-19 21:41:00,
2013-05-19 16:46:00,85.2,65.6,29.61,WSW,246,8.1,8.1,52,0.00,CLR,SKC,0.00,636.0,WeatherDisplay:10.37,2013-05-19 21:46:00,
2013-05-19 16:51:00,85.0,65.4,29.61,NNW,329,16.1,16.1,52,0.00,FEW,SKC,0.00,612.0,WeatherDisplay:10.37,2013-05-19 21:51:00,
2013-05-19 16:56:00,85.0,66.5,29.60,SE,132,3.5,3.5,54,0.00,FEW,SKC,0.00,592.0,WeatherDisplay:10.37,2013-05-19 21:56:00,
2013-05-19 17:01:00,85.2,66.1,29.60,SSW,198,8.1,8.1,53,0.00,FEW,SKC,0.00,575.0,WeatherDisplay:10.37,2013-05-19 22:01:00,
2013-05-19 17:06:00,85.0,66.0,29.60,SW,230,10.4,10.4,53,0.00,FEW,SKC,0.00,563.0,WeatherDisplay:10.37,2013-05-19 22:06:00,
2013-05-19 17:11:00,84.4,65.4,29.60,WSW,247,23.0,23.0,53,0.00,FEW,SKC,0.00,548.0,WeatherDisplay:10.37,2013-05-19 22:11:00,
2013-05-19 17:16:00,84.1,65.7,29.59,SSE,153,11.5,11.5,54,0.00,CLR,SKC,0.00,536.0,WeatherDisplay:10.37,2013-05-19 22:16:00,
2013-05-19 17:21:00,83.9,66.0,29.58,SW,231,15.0,15.0,55,0.00,CLR,SKC,0.00,526.0,WeatherDisplay:10.37,2013-05-19 22:21:00,
2013-05-19 17:26:00,83.8,65.9,29.59,WSW,242,6.0,6.0,55,0.00,CLR,SKC,0.00,515.0,WeatherDisplay:10.37,2013-05-19 22:26:00,
2013-05-19 17:31:00,83.8,65.9,29.59,ENE,65,6.9,6.9,55,0.00,CLR,SKC,0.00,490.0,WeatherDisplay:10.37,2013-05-19 22:31:00,
2013-05-19 17:36:00,84.0,66.6,29.59,SW,231,5.8,5.8,56,0.00,CLR,SKC,0.00,473.0,WeatherDisplay:10.37,2013-05-19 22:36:00,
2013-05-19 17:41:00,83.8,66.4,29.60,SW,222,12.7,12.7,56,0.00,CLR,SKC,0.00,432.0,WeatherDisplay:10.37,2013-05-19 22:41:00,
2013-05-19 17:46:00,83.4,65.0,29.61,ENE,65,9.2,9.2,54,0.00,SCT,SKC,0.00,246.0,WeatherDisplay:10.37,2013-05-19 22:46:00,
2013-05-19 17:51:00,83.2,65.9,29.60,SSW,201,13.8,13.8,56,0.00,FEW,SKC,0.00,392.0,WeatherDisplay:10.37,2013-05-19 22:51:00,
2013-05-19 17:56:00,83.2,65.9,29.60,SW,222,2.3,3.7,56,0.00,SCT,SKC,0.00,283.0,WeatherDisplay:10.37,2013-05-19 22:56:00,
2013-05-19 18:01:00,83.0,65.7,29.60,SW,223,4.6,4.6,56,0.00,SCT,SKC,0.00,213.0,WeatherDisplay:10.37,2013-05-19 23:01:00,
2013-05-19 18:06:00,82.3,65.5,29.60,SW,221,5.8,5.8,57,0.00,BKN,SKC,0.00,163.0,WeatherDisplay:10.37,2013-05-19 23:06:00,
2013-05-19 18:11:00,81.9,65.7,29.60,WNW,283,6.0,6.0,58,0.00,OVC,SKC,0.00,135.0,WeatherDisplay:10.37,2013-05-19 23:11:00,
2013-05-19 18:16:00,81.6,65.9,29.59,SSE,168,10.0,10.0,59,0.00,OVC,SKC,0.00,125.0,WeatherDisplay:10.37,2013-05-19 23:16:00,
2013-05-19 18:21:00,81.1,65.9,29.59,NE,36,6.9,6.9,60,0.00,OVC,SKC,0.00,120.0,WeatherDisplay:10.37,2013-05-19 23:21:00,
2013-05-19 18:26:00,80.9,65.7,29.59,NNW,334,10.4,10.4,60,0.00,OVC,SKC,0.00,121.0,WeatherDisplay:10.37,2013-05-19 23:26:00,
2013-05-19 18:31:00,80.6,65.9,29.59,West,265,13.8,13.8,61,0.00,BKN,SKC,0.00,116.0,WeatherDisplay:10.37,2013-05-19 23:31:00,
2013-05-19 18:36:00,80.4,66.2,29.60,SW,230,9.2,9.2,62,0.00,OVC,SKC,0.00,109.0,WeatherDisplay:10.37,2013-05-19 23:36:00,
2013-05-19 18:41:00,80.3,66.1,29.59,SW,228,11.5,11.5,62,0.00,OVC,SKC,0.00,102.0,WeatherDisplay:10.37,2013-05-19 23:41:00,
2013-05-19 18:46:00,80.0,65.8,29.59,ESE,119,6.9,6.9,62,0.00,OVC,SKC,0.00,95.0,WeatherDisplay:10.37,2013-05-19 23:46:00,
2013-05-19 18:51:00,79.8,65.6,29.60,West,261,15.0,15.0,62,0.00,OVC,SKC,0.00,86.0,WeatherDisplay:10.37,2013-05-19 23:51:00,
2013-05-19 18:56:00,79.6,65.4,29.60,SW,236,10.4,10.4,62,0.00,OVC,SKC,0.00,77.0,WeatherDisplay:10.37,2013-05-19 23:56:00,
2013-05-19 19:01:00,79.5,65.8,29.60,SSW,196,5.8,5.8,63,0.00,OVC,SKC,0.00,70.0,WeatherDisplay:10.37,2013-05-20 00:01:00,
2013-05-19 19:06:00,79.3,65.6,29.60,SW,221,10.4,10.4,63,0.00,OVC,SKC,0.00,62.0,WeatherDisplay:10.37,2013-05-20 00:06:00,
2013-05-19 19:11:00,79.1,65.9,29.60,WNW,282,9.2,9.2,64,0.00,OVC,SKC,0.00,54.0,WeatherDisplay:10.37,2013-05-20 00:11:00,
2013-05-19 19:16:00,79.0,65.8,29.61,SW,234,4.6,4.6,64,0.00,OVC,SKC,0.00,47.0,WeatherDisplay:10.37,2013-05-20 00:16:00,
2013-05-19 19:21:00,78.8,66.0,29.61,WSW,239,11.5,11.5,65,0.00,OVC,SKC,0.00,42.0,WeatherDisplay:10.37,2013-05-20 00:21:00,
2013-05-19 19:26:00,78.6,65.8,29.62,WSW,257,6.0,6.0,65,0.00,OVC,SKC,0.00,35.0,WeatherDisplay:10.37,2013-05-20 00:26:00,
2013-05-19 19:31:00,78.5,65.8,29.63,WSW,240,1.2,1.2,65,0.00,OVC,SKC,0.00,28.0,WeatherDisplay:10.37,2013-05-20 00:31:00,
2013-05-19 19:36:00,78.5,66.2,29.63,SW,223,11.5,11.5,66,0.00,OVC,SKC,0.00,25.0,WeatherDisplay:10.37,2013-05-20 00:36:00,
2013-05-19 19:41:00,78.4,66.1,29.63,WNW,295,4.0,4.0,66,0.00,OVC,SKC,0.00,19.0,WeatherDisplay:10.37,2013-05-20 00:41:00,
2013-05-19 19:46:00,78.2,66.3,29.63,WSW,246,9.2,9.2,67,0.00,OVC,SKC,0.00,16.0,WeatherDisplay:10.37,2013-05-20 00:46:00,
2013-05-19 19:51:00,78.1,66.2,29.62,NW,326,9.2,9.2,67,0.00,OVC,SKC,0.00,12.0,WeatherDisplay:10.37,2013-05-20 00:51:00,
2013-05-19 19:56:00,78.0,66.6,29.64,WSW,248,6.9,6.9,68,0.00,OVC,SKC,0.00,9.0,WeatherDisplay:10.37,2013-05-20 00:56:00,
2013-05-19 20:01:00,77.8,66.4,29.63,West,261,2.3,2.3,68,0.00,OVC,SKC,0.00,7.0,WeatherDisplay:10.37,2013-05-20 01:01:00,
2013-05-19 20:06:00,77.7,66.3,29.63,SW,225,3.5,3.5,68,0.00,OVC,SKC,0.00,0.0,WeatherDisplay:10.37,2013-05-20 01:06:00,
2013-05-19 20:11:00,77.6,66.6,29.63,SW,231,4.0,4.4,69,0.00,OVC,SKC,0.00,0.0,WeatherDisplay:10.37,2013-05-20 01:11:00,
2013-05-19 20:16:00,77.4,66.8,29.63,NW,325,5.8,5.8,70,0.00,OVC,SKC,0.00,0.0,WeatherDisplay:10.37,2013-05-20 01:16:00,
2013-05-19 20:21:00,77.3,67.2,29.64,SSW,213,5.8,5.8,71,0.00,OVC,SKC,0.00,0.0,WeatherDisplay:10.37,2013-05-20 01:21:00,
2013-05-19 20:26:00,77.1,67.0,29.64,West,261,4.6,4.6,71,0.00,OVC,SKC,0.00,0.0,WeatherDisplay:10.37,2013-05-20 01:26:00,
2013-05-19 20:31:00,77.0,66.9,29.64,SSW,210,4.6,6.2,71,0.00,OVC,SKC,0.00,0.0,WeatherDisplay:10.37,2013-05-20 01:31:00,
2013-05-19 20:36:00,77.0,66.9,29.64,SE,125,5.0,5.0,71,0.00,OVC,SKC,0.00,0.0,WeatherDisplay:10.37,2013-05-20 01:36:00,
2013-05-19 20:41:00,76.9,66.8,29.65,SW,232,5.8,5.8,71,0.00,OVC,SKC,0.00,0.0,WeatherDisplay:10.37,2013-05-20 01:41:00,
2013-05-19 20:46:00,76.8,66.7,29.65,SW,223,16.0,16.0,71,0.00,OVC,SKC,0.00,0.0,WeatherDisplay:10.37,2013-05-20 01:46:00,
2013-05-19 20:51:00,76.8,67.1,29.65,WSW,252,3.5,3.5,72,0.00,CLR,SKC,0.00,0.0,WeatherDisplay:10.37,2013-05-20 01:51:00,
2013-05-19 20:56:00,76.8,67.1,29.65,West,261,9.2,9.2,72,0.00,CLR,SKC,0.00,0.0,WeatherDisplay:10.37,2013-05-20 01:56:00,
2013-05-19 21:01:00,76.7,67.0,29.65,East,80,3.5,3.5,72,0.00,CLR,SKC,0.00,0.0,WeatherDisplay:10.37,2013-05-20 02:01:00,
2013-05-19 21:06:00,76.6,66.9,29.63,SSW,195,3.5,3.5,72,0.00,CLR,SKC,0.00,0.0,WeatherDisplay:10.37,2013-05-20 02:06:00,
2013-05-19 21:11:00,76.5,66.8,29.63,SSE,165,6.0,6.0,72,0.00,CLR,SKC,0.00,0.0,WeatherDisplay:10.37,2013-05-20 02:11:00,
2013-05-19 21:16:00,76.4,67.1,29.63,East,93,3.5,3.5,73,0.00,CLR,SKC,0.00,0.0,WeatherDisplay:10.37,2013-05-20 02:16:00,
2013-05-19 21:21:00,76.3,67.0,29.63,East,80,4.6,4.6,73,0.00,CLR,SKC,0.00,0.0,WeatherDisplay:10.37,2013-05-20 02:21:00,
2013-05-19 21:26:00,76.2,67.3,29.63,South,171,9.2,9.2,74,0.00,CLR,SKC,0.00,0.0,WeatherDisplay:10.37,2013-05-20 02:26:00,
2013-05-19 21:31:00,76.1,67.2,29.63,SE,140,1.2,2.1,74,0.00,CLR,SKC,0.00,0.0,WeatherDisplay:10.37,2013-05-20 02:31:00,
2013-05-19 21:36:00,76.0,67.1,29.63,SW,236,15.0,15.0,74,0.00,CLR,SKC,0.00,0.0,WeatherDisplay:10.37,2013-05-20 02:36:00,
2013-05-19 21:41:00,75.9,67.0,29.63,West,280,10.4,10.4,74,0.00,CLR,SKC,0.00,0.0,WeatherDisplay:10.37,2013-05-20 02:41:00,
2013-05-19 21:46:00,75.9,67.4,29.63,West,263,4.6,4.6,75,0.00,CLR,SKC,0.00,0.0,WeatherDisplay:10.37,2013-05-20 02:46:00,
2013-05-19 21:51:00,75.8,67.3,29.63,SW,217,4.0,4.0,75,0.00,CLR,SKC,0.00,0.0,WeatherDisplay:10.37,2013-05-20 02:51:00,
2013-05-19 21:56:00,75.7,67.6,29.63,SSW,211,2.3,2.3,76,0.00,CLR,SKC,0.00,0.0,WeatherDisplay:10.37,2013-05-20 02:56:00,
2013-05-19 22:01:00,75.6,67.5,29.63,WNW,282,9.2,9.2,76,0.00,CLR,SKC,0.00,0.0,WeatherDisplay:10.37,2013-05-20 03:01:00,
2013-05-19 22:06:00,75.5,67.8,29.64,SW,218,2.3,2.3,77,0.00,CLR,SKC,0.00,0.0,WeatherDisplay:10.37,2013-05-20 03:06:00,
2013-05-19 22:11:00,75.4,67.7,29.64,West,269,4.6,4.6,77,0.00,CLR,SKC,0.00,0.0,WeatherDisplay:10.37,2013-05-20 03:11:00,
2013-05-19 22:16:00,75.3,68.0,29.64,WNW,292,6.9,6.9,78,0.00,CLR,SKC,0.00,0.0,WeatherDisplay:10.37,2013-05-20 03:16:00,
2013-05-19 22:21:00,75.3,68.0,29.64,SW,230,10.4,10.4,78,0.00,CLR,SKC,0.00,0.0,WeatherDisplay:10.37,2013-05-20 03:21:00,
2013-05-19 22:26:00,75.3,68.0,29.64,SW,222,8.1,8.1,78,0.00,CLR,SKC,0.00,0.0,WeatherDisplay:10.37,2013-05-20 03:26:00,
2013-05-19 22:31:00,75.2,67.9,29.64,South,170,6.9,6.9,78,0.00,CLR,SKC,0.00,0.0,WeatherDisplay:10.37,2013-05-20 03:31:00,
2013-05-19 22:36:00,75.2,67.9,29.64,South,188,9.2,9.2,78,0.00,CLR,SKC,0.00,0.0,WeatherDisplay:10.37,2013-05-20 03:36:00,
2013-05-19 22:41:00,75.2,67.9,29.64,SW,227,5.8,5.8,78,0.00,CLR,SKC,0.00,0.0,WeatherDisplay:10.37,2013-05-20 03:41:00,
2013-05-19 22:46:00,75.1,67.8,29.64,WNW,284,5.8,5.8,78,0.00,CLR,SKC,0.00,0.0,WeatherDisplay:10.37,2013-05-20 03:46:00,
2013-05-19 22:51:00,75.1,67.8,29.64,South,182,6.9,6.9,78,0.00,CLR,SKC,0.00,0.0,WeatherDisplay:10.37,2013-05-20 03:51:00,
2013-05-19 22:56:00,75.1,67.8,29.64,South,177,5.0,5.0,78,0.00,CLR,SKC,0.00,0.0,WeatherDisplay:10.37,2013-05-20 03:56:00,
2013-05-19 23:01:00,75.1,67.8,29.65,SW,236,4.0,4.0,78,0.00,CLR,SKC,0.00,0.0,WeatherDisplay:10.37,2013-05-20 04:01:00,
2013-05-19 23:02:00,75.1,67.8,29.65,SSW,213,5.8,5.8,78,0.00,CLR,SKC,0.00,0.0,WeatherDisplay:10.37,2013-05-20 04:02:00,
2013-05-19 23:04:00,75.1,67.8,29.65,WSW,252,11.5,11.5,78,0.00,CLR,SKC,0.00,0.0,WeatherDisplay:10.37,2013-05-20 04:04:00,
2013-05-19 23:09:00,75.0,67.7,29.65,SE,138,3.5,3.5,78,0.00,CLR,SKC,0.00,0.0,WeatherDisplay:10.37,2013-05-20 04:09:00,
2013-05-19 23:14:00,75.0,67.7,29.64,SW,229,9.2,9.2,78,0.00,CLR,SKC,0.00,0.0,WeatherDisplay:10.37,2013-05-20 04:14:00,
2013-05-19 23:19:00,74.9,67.6,29.64,SW,235,11.5,11.5,78,0.00,CLR,SKC,0.00,0.0,WeatherDisplay:10.37,2013-05-20 04:19:00,
2013-05-19 23:24:00,74.8,67.5,29.64,SW,235,9.0,9.0,78,0.00,CLR,SKC,0.00,0.0,WeatherDisplay:10.37,2013-05-20 04:24:00,
2013-05-19 23:29:00,74.8,67.5,29.65,SW,225,13.0,13.0,78,0.00,CLR,SKC,0.00,0.0,WeatherDisplay:10.37,2013-05-20 04:29:00,
2013-05-19 23:34:00,74.7,67.4,29.65,SE,126,6.9,6.9,78,0.00,CLR,SKC,0.00,0.0,WeatherDisplay:10.37,2013-05-20 04:34:00,
2013-05-19 23:39:00,74.7,67.4,29.65,SSE,157,13.8,13.8,78,0.00,CLR,SKC,0.00,0.0,WeatherDisplay:10.37,2013-05-20 04:39:00,
2013-05-19 23:44:00,74.5,67.6,29.65,West,259,5.8,5.8,79,0.00,CLR,SKC,0.00,0.0,WeatherDisplay:10.37,2013-05-20 04:44:00,
2013-05-19 23:49:00,74.4,67.5,29.65,NW,318,6.9,6.9,79,0.00,CLR,SKC,0.00,0.0,WeatherDisplay:10.37,2013-05-20 04:49:00,
2013-05-19 23:54:00,74.4,67.5,29.65,WSW,240,4.6,4.6,79,0.00,CLR,SKC,0.00,0.0,WeatherDisplay:10.37,2013-05-20 04:54:00,
2013-05-19 23:59:00,74.3,67.4,29.66,SW,223,3.5,3.5,79,0.00,CLR,SKC,0.00,0.0,WeatherDisplay:10.37,2013-05-20 04:59:00,